sensor_id;sensor_type;location;lat;lon;timestamp;temperature;humidity
9800;DHT22;4939;52.00085300;4.17406100;2023-10-09T00:06:41;18.20;99.90
9800;DHT22;4939;52.00085300;4.17406100;2023-10-09T00:09:08;18.20;99.90
9800;DHT22;4939;52.00085300;4.17406100;2023-10-09T00:11:43;18.20;99.90
9800;DHT22;4939;52.00085300;4.17406100;2023-10-09T00:14:13;18.20;99.90
9800;DHT22;4939;52.00085300;4.17406100;2023-10-09T00:16:41;18.40;99.90
9800;DHT22;4939;52.00085300;4.17406100;2023-10-09T00:21:55;18.60;99.90
9800;DHT22;4939;52.00085300;4.17406100;2023-10-09T00:24:24;18.80;99.90
9800;DHT22;4939;52.00085300;4.17406100;2023-10-09T00:26:54;18.90;99.90
9800;DHT22;4939;52.00085300;4.17406100;2023-10-09T00:34:42;19.20;99.90
9800;DHT22;4939;52.00085300;4.17406100;2023-10-09T00:37:09;19.20;99.90
9800;DHT22;4939;52.00085300;4.17406100;2023-10-09T00:39:49;19.20;99.90
9800;DHT22;4939;52.00085300;4.17406100;2023-10-09T00:42:22;19.30;99.90
9800;DHT22;4939;52.00085300;4.17406100;2023-10-09T00:44:54;19.20;99.90
9800;DHT22;4939;52.00085300;4.17406100;2023-10-09T00:47:21;19.20;99.90
9800;DHT22;4939;52.00085300;4.17406100;2023-10-09T00:52:28;19.30;99.90
9800;DHT22;4939;52.00085300;4.17406100;2023-10-09T00:55:01;19.30;99.90
9800;DHT22;4939;52.00085300;4.17406100;2023-10-09T00:57:31;19.30;99.90
9800;DHT22;4939;52.00085300;4.17406100;2023-10-09T01:05:08;19.40;99.90
9800;DHT22;4939;52.00085300;4.17406100;2023-10-09T01:07:46;19.30;99.90
9800;DHT22;4939;52.00085300;4.17406100;2023-10-09T01:10:13;19.30;99.90
9800;DHT22;4939;52.00085300;4.17406100;2023-10-09T01:12:42;19.40;99.90
9800;DHT22;4939;52.00085300;4.17406100;2023-10-09T01:15:10;19.40;99.90
9800;DHT22;4939;52.00085300;4.17406100;2023-10-09T01:17:56;19.40;99.90
9800;DHT22;4939;52.00085300;4.17406100;2023-10-09T01:33:08;19.40;99.90
9800;DHT22;4939;52.00085300;4.17406100;2023-10-09T01:38:13;19.40;99.90
9800;DHT22;4939;52.00085300;4.17406100;2023-10-09T01:45:38;19.20;99.90
9800;DHT22;4939;52.00085300;4.17406100;2023-10-09T01:48:12;19.10;99.90
9800;DHT22;4939;52.00085300;4.17406100;2023-10-09T01:50:40;19.10;99.90
9800;DHT22;4939;52.00085300;4.17406100;2023-10-09T01:53:10;19.10;99.90
9800;DHT22;4939;52.00085300;4.17406100;2023-10-09T01:55:42;19.10;99.90
9800;DHT22;4939;52.00085300;4.17406100;2023-10-09T02:00:43;18.90;99.90
9800;DHT22;4939;52.00085300;4.17406100;2023-10-09T02:05:51;18.80;99.90
9800;DHT22;4939;52.00085300;4.17406100;2023-10-09T02:10:53;18.70;99.90
9800;DHT22;4939;52.00085300;4.17406100;2023-10-09T02:15:56;18.60;99.90
9800;DHT22;4939;52.00085300;4.17406100;2023-10-09T02:25:58;18.60;99.90
9800;DHT22;4939;52.00085300;4.17406100;2023-10-09T02:35:59;18.60;99.90
9800;DHT22;4939;52.00085300;4.17406100;2023-10-09T02:43:35;18.60;99.90
9800;DHT22;4939;52.00085300;4.17406100;2023-10-09T02:46:14;18.60;99.90
9800;DHT22;4939;52.00085300;4.17406100;2023-10-09T02:51:26;18.60;99.90
9800;DHT22;4939;52.00085300;4.17406100;2023-10-09T03:01:38;18.60;99.90
9800;DHT22;4939;52.00085300;4.17406100;2023-10-09T03:04:04;18.60;99.90
9800;DHT22;4939;52.00085300;4.17406100;2023-10-09T03:06:32;18.60;99.90
9800;DHT22;4939;52.00085300;4.17406100;2023-10-09T03:13:55;18.60;99.90
9800;DHT22;4939;52.00085300;4.17406100;2023-10-09T03:18:52;18.60;99.90
9800;DHT22;4939;52.00085300;4.17406100;2023-10-09T03:21:21;18.70;99.90
9800;DHT22;4939;52.00085300;4.17406100;2023-10-09T03:23:48;18.60;99.90
9800;DHT22;4939;52.00085300;4.17406100;2023-10-09T03:26:17;18.70;99.90
9800;DHT22;4939;52.00085300;4.17406100;2023-10-09T03:28:47;18.70;99.90
9800;DHT22;4939;52.00085300;4.17406100;2023-10-09T03:33:40;18.70;99.90
9800;DHT22;4939;52.00085300;4.17406100;2023-10-09T03:36:06;18.80;99.90
9800;DHT22;4939;52.00085300;4.17406100;2023-10-09T03:38:43;18.80;99.90
9800;DHT22;4939;52.00085300;4.17406100;2023-10-09T03:43:38;18.90;99.90
9800;DHT22;4939;52.00085300;4.17406100;2023-10-09T03:46:08;18.80;99.90
9800;DHT22;4939;52.00085300;4.17406100;2023-10-09T03:58:50;18.60;99.90
9800;DHT22;4939;52.00085300;4.17406100;2023-10-09T04:01:21;18.70;99.90
9800;DHT22;4939;52.00085300;4.17406100;2023-10-09T04:03:58;18.60;99.90
9800;DHT22;4939;52.00085300;4.17406100;2023-10-09T04:06:28;18.60;99.90
9800;DHT22;4939;52.00085300;4.17406100;2023-10-09T04:09:08;18.60;99.90
9800;DHT22;4939;52.00085300;4.17406100;2023-10-09T04:11:50;18.60;99.90
9800;DHT22;4939;52.00085300;4.17406100;2023-10-09T04:14:39;18.60;99.90
9800;DHT22;4939;52.00085300;4.17406100;2023-10-09T04:20:03;18.50;99.90
9800;DHT22;4939;52.00085300;4.17406100;2023-10-09T04:22:44;18.50;99.90
9800;DHT22;4939;52.00085300;4.17406100;2023-10-09T04:27:52;18.50;99.90
9800;DHT22;4939;52.00085300;4.17406100;2023-10-09T04:35:11;18.60;99.90
9800;DHT22;4939;52.00085300;4.17406100;2023-10-09T04:43:03;18.70;99.90
9800;DHT22;4939;52.00085300;4.17406100;2023-10-09T04:45:41;18.70;99.90
9800;DHT22;4939;52.00085300;4.17406100;2023-10-09T04:50:36;18.70;99.90
9800;DHT22;4939;52.00085300;4.17406100;2023-10-09T04:53:12;18.80;99.90
9800;DHT22;4939;52.00085300;4.17406100;2023-10-09T04:58:23;18.80;99.90
9800;DHT22;4939;52.00085300;4.17406100;2023-10-09T05:06:11;18.70;99.90
9800;DHT22;4939;52.00085300;4.17406100;2023-10-09T05:16:53;18.60;99.90
9800;DHT22;4939;52.00085300;4.17406100;2023-10-09T05:22:10;18.60;99.90
9800;DHT22;4939;52.00085300;4.17406100;2023-10-09T05:24:56;18.60;99.90
9800;DHT22;4939;52.00085300;4.17406100;2023-10-09T05:32:56;18.50;99.90
9800;DHT22;4939;52.00085300;4.17406100;2023-10-09T05:51:35;18.40;99.90
9800;DHT22;4939;52.00085300;4.17406100;2023-10-09T06:08:29;18.40;99.90
9800;DHT22;4939;52.00085300;4.17406100;2023-10-09T06:11:08;18.40;99.90
9800;DHT22;4939;52.00085300;4.17406100;2023-10-09T06:13:57;18.50;99.90
9800;DHT22;4939;52.00085300;4.17406100;2023-10-09T06:16:32;18.50;99.90
9800;DHT22;4939;52.00085300;4.17406100;2023-10-09T06:21:46;18.50;99.90
9800;DHT22;4939;52.00085300;4.17406100;2023-10-09T06:24:23;18.50;99.90
9800;DHT22;4939;52.00085300;4.17406100;2023-10-09T06:26:49;18.60;99.90
9800;DHT22;4939;52.00085300;4.17406100;2023-10-09T06:29:28;18.60;99.90
9800;DHT22;4939;52.00085300;4.17406100;2023-10-09T06:32:10;18.50;99.90
9800;DHT22;4939;52.00085300;4.17406100;2023-10-09T06:37:15;18.60;99.90
9800;DHT22;4939;52.00085300;4.17406100;2023-10-09T06:40:04;18.60;99.90
9800;DHT22;4939;52.00085300;4.17406100;2023-10-09T06:43:00;18.60;99.90
9800;DHT22;4939;52.00085300;4.17406100;2023-10-09T06:45:35;18.70;99.90
9800;DHT22;4939;52.00085300;4.17406100;2023-10-09T06:50:56;18.70;99.90
9800;DHT22;4939;52.00085300;4.17406100;2023-10-09T06:56:19;18.80;99.90
9800;DHT22;4939;52.00085300;4.17406100;2023-10-09T06:59:05;18.80;99.90
9800;DHT22;4939;52.00085300;4.17406100;2023-10-09T07:04:09;18.70;99.90
9800;DHT22;4939;52.00085300;4.17406100;2023-10-09T07:06:45;18.70;99.90
9800;DHT22;4939;52.00085300;4.17406100;2023-10-09T07:09:12;16.10;99.90
9800;DHT22;4939;52.00085300;4.17406100;2023-10-09T07:11:49;18.70;99.90
9800;DHT22;4939;52.00085300;4.17406100;2023-10-09T07:19:23;18.80;99.90
9800;DHT22;4939;52.00085300;4.17406100;2023-10-09T07:22:12;18.90;99.90
9800;DHT22;4939;52.00085300;4.17406100;2023-10-09T07:24:57;18.90;99.90
9800;DHT22;4939;52.00085300;4.17406100;2023-10-09T07:27:25;18.90;99.90
9800;DHT22;4939;52.00085300;4.17406100;2023-10-09T07:30:11;18.90;99.90
9800;DHT22;4939;52.00085300;4.17406100;2023-10-09T07:33:02;19.00;99.90
9800;DHT22;4939;52.00085300;4.17406100;2023-10-09T07:35:34;19.00;99.90
9800;DHT22;4939;52.00085300;4.17406100;2023-10-09T07:38:17;19.10;99.90
9800;DHT22;4939;52.00085300;4.17406100;2023-10-09T07:40:47;19.10;99.90
9800;DHT22;4939;52.00085300;4.17406100;2023-10-09T07:46:16;19.20;99.90
9800;DHT22;4939;52.00085300;4.17406100;2023-10-09T07:49:03;19.30;99.90
9800;DHT22;4939;52.00085300;4.17406100;2023-10-09T07:51:39;19.30;99.90
9800;DHT22;4939;52.00085300;4.17406100;2023-10-09T07:56:39;19.40;99.90
9800;DHT22;4939;52.00085300;4.17406100;2023-10-09T07:59:07;19.50;99.90
9800;DHT22;4939;52.00085300;4.17406100;2023-10-09T08:01:47;19.50;99.90
9800;DHT22;4939;52.00085300;4.17406100;2023-10-09T08:04:28;19.50;99.90
9800;DHT22;4939;52.00085300;4.17406100;2023-10-09T08:07:08;19.60;99.90
9800;DHT22;4939;52.00085300;4.17406100;2023-10-09T08:15:06;19.60;99.90
9800;DHT22;4939;52.00085300;4.17406100;2023-10-09T08:17:57;19.70;99.90
9800;DHT22;4939;52.00085300;4.17406100;2023-10-09T08:20:30;19.70;99.90
9800;DHT22;4939;52.00085300;4.17406100;2023-10-09T08:26:02;19.80;99.90
9800;DHT22;4939;52.00085300;4.17406100;2023-10-09T08:28:41;19.80;99.90
9800;DHT22;4939;52.00085300;4.17406100;2023-10-09T08:31:15;19.90;99.90
9800;DHT22;4939;52.00085300;4.17406100;2023-10-09T08:33:48;19.90;99.90
9800;DHT22;4939;52.00085300;4.17406100;2023-10-09T08:36:25;19.90;99.90
9800;DHT22;4939;52.00085300;4.17406100;2023-10-09T08:38:56;19.90;99.90
9800;DHT22;4939;52.00085300;4.17406100;2023-10-09T08:43:56;19.90;99.90
9800;DHT22;4939;52.00085300;4.17406100;2023-10-09T08:46:24;19.80;99.90
9800;DHT22;4939;52.00085300;4.17406100;2023-10-09T08:48:56;19.70;99.90
9800;DHT22;4939;52.00085300;4.17406100;2023-10-09T08:51:26;19.70;99.90
9800;DHT22;4939;52.00085300;4.17406100;2023-10-09T08:56:20;19.70;99.90
9800;DHT22;4939;52.00085300;4.17406100;2023-10-09T08:58:56;19.70;99.90
9800;DHT22;4939;52.00085300;4.17406100;2023-10-09T09:01:23;19.70;99.90
9800;DHT22;4939;52.00085300;4.17406100;2023-10-09T09:03:51;19.70;99.90
9800;DHT22;4939;52.00085300;4.17406100;2023-10-09T09:06:21;19.70;99.90
9800;DHT22;4939;52.00085300;4.17406100;2023-10-09T09:08:50;19.80;99.90
9800;DHT22;4939;52.00085300;4.17406100;2023-10-09T09:16:24;19.80;99.90
9800;DHT22;4939;52.00085300;4.17406100;2023-10-09T09:21:36;19.90;99.90
9800;DHT22;4939;52.00085300;4.17406100;2023-10-09T09:24:07;19.90;99.90
9800;DHT22;4939;52.00085300;4.17406100;2023-10-09T09:26:50;19.90;99.90
9800;DHT22;4939;52.00085300;4.17406100;2023-10-09T09:32:11;19.90;99.90
9800;DHT22;4939;52.00085300;4.17406100;2023-10-09T09:34:44;19.90;99.90
9800;DHT22;4939;52.00085300;4.17406100;2023-10-09T09:37:19;19.90;99.90
9800;DHT22;4939;52.00085300;4.17406100;2023-10-09T09:39:46;20.00;99.90
9800;DHT22;4939;52.00085300;4.17406100;2023-10-09T09:42:15;20.00;99.90
9800;DHT22;4939;52.00085300;4.17406100;2023-10-09T09:44:51;20.20;99.90
9800;DHT22;4939;52.00085300;4.17406100;2023-10-09T09:47:18;20.10;99.90
9800;DHT22;4939;52.00085300;4.17406100;2023-10-09T09:49:57;20.10;99.90
9800;DHT22;4939;52.00085300;4.17406100;2023-10-09T09:52:29;20.00;99.90
9800;DHT22;4939;52.00085300;4.17406100;2023-10-09T09:57:24;20.00;99.90
9800;DHT22;4939;52.00085300;4.17406100;2023-10-09T09:59:52;20.10;99.90
9800;DHT22;4939;52.00085300;4.17406100;2023-10-09T10:02:34;20.00;99.90
9800;DHT22;4939;52.00085300;4.17406100;2023-10-09T10:05:04;19.90;99.90
9800;DHT22;4939;52.00085300;4.17406100;2023-10-09T10:07:33;19.90;99.90
9800;DHT22;4939;52.00085300;4.17406100;2023-10-09T10:12:58;19.90;99.90
9800;DHT22;4939;52.00085300;4.17406100;2023-10-09T10:18:23;19.90;99.90
9800;DHT22;4939;52.00085300;4.17406100;2023-10-09T10:23:44;19.90;99.90
9800;DHT22;4939;52.00085300;4.17406100;2023-10-09T10:26:17;20.10;99.90
9800;DHT22;4939;52.00085300;4.17406100;2023-10-09T10:29:13;20.10;99.90
9800;DHT22;4939;52.00085300;4.17406100;2023-10-09T10:31:58;20.20;99.90
9800;DHT22;4939;52.00085300;4.17406100;2023-10-09T10:37:41;20.10;99.90
9800;DHT22;4939;52.00085300;4.17406100;2023-10-09T10:40:27;20.10;99.90
9800;DHT22;4939;52.00085300;4.17406100;2023-10-09T10:43:20;20.20;99.90
9800;DHT22;4939;52.00085300;4.17406100;2023-10-09T10:46:07;20.30;99.90
9800;DHT22;4939;52.00085300;4.17406100;2023-10-09T10:48:53;20.30;99.90
9800;DHT22;4939;52.00085300;4.17406100;2023-10-09T10:51:34;20.20;99.90
9800;DHT22;4939;52.00085300;4.17406100;2023-10-09T10:54:04;20.20;99.90
9800;DHT22;4939;52.00085300;4.17406100;2023-10-09T10:56:49;20.30;99.90
9800;DHT22;4939;52.00085300;4.17406100;2023-10-09T10:59:15;20.30;99.90
9800;DHT22;4939;52.00085300;4.17406100;2023-10-09T11:01:49;20.20;99.90
9800;DHT22;4939;52.00085300;4.17406100;2023-10-09T11:04:18;20.20;99.90
9800;DHT22;4939;52.00085300;4.17406100;2023-10-09T11:07:01;20.20;99.90
9800;DHT22;4939;52.00085300;4.17406100;2023-10-09T11:09:52;20.20;99.90
9800;DHT22;4939;52.00085300;4.17406100;2023-10-09T11:12:27;20.10;99.90
9800;DHT22;4939;52.00085300;4.17406100;2023-10-09T11:15:14;20.20;99.90
9800;DHT22;4939;52.00085300;4.17406100;2023-10-09T11:18:01;20.30;99.90
9800;DHT22;4939;52.00085300;4.17406100;2023-10-09T11:20:34;20.20;99.90
9800;DHT22;4939;52.00085300;4.17406100;2023-10-09T11:23:01;20.10;99.90
9800;DHT22;4939;52.00085300;4.17406100;2023-10-09T11:25:46;20.10;99.90
9800;DHT22;4939;52.00085300;4.17406100;2023-10-09T11:28:22;20.30;99.90
9800;DHT22;4939;52.00085300;4.17406100;2023-10-09T11:30:59;20.20;99.90
9800;DHT22;4939;52.00085300;4.17406100;2023-10-09T11:33:45;20.30;99.90
9800;DHT22;4939;52.00085300;4.17406100;2023-10-09T11:36:11;20.20;99.90
9800;DHT22;4939;52.00085300;4.17406100;2023-10-09T11:38:37;20.20;99.90
9800;DHT22;4939;52.00085300;4.17406100;2023-10-09T11:41:16;20.20;99.90
9800;DHT22;4939;52.00085300;4.17406100;2023-10-09T11:43:51;20.10;99.90
9800;DHT22;4939;52.00085300;4.17406100;2023-10-09T11:46:21;20.20;99.90
9800;DHT22;4939;52.00085300;4.17406100;2023-10-09T11:49:07;20.10;99.90
9800;DHT22;4939;52.00085300;4.17406100;2023-10-09T11:51:48;20.10;99.90
9800;DHT22;4939;52.00085300;4.17406100;2023-10-09T11:54:32;20.00;99.90
9800;DHT22;4939;52.00085300;4.17406100;2023-10-09T11:57:03;20.00;99.90
9800;DHT22;4939;52.00085300;4.17406100;2023-10-09T11:59:32;20.10;99.90
9800;DHT22;4939;52.00085300;4.17406100;2023-10-09T12:02:09;20.10;99.90
9800;DHT22;4939;52.00085300;4.17406100;2023-10-09T12:04:44;20.20;99.90
9800;DHT22;4939;52.00085300;4.17406100;2023-10-09T12:07:10;20.20;99.90
9800;DHT22;4939;52.00085300;4.17406100;2023-10-09T12:09:37;20.40;99.90
9800;DHT22;4939;52.00085300;4.17406100;2023-10-09T12:12:07;20.50;99.90
9800;DHT22;4939;52.00085300;4.17406100;2023-10-09T12:14:36;20.50;99.90
9800;DHT22;4939;52.00085300;4.17406100;2023-10-09T12:17:07;20.40;99.90
9800;DHT22;4939;52.00085300;4.17406100;2023-10-09T12:19:37;20.30;99.90
9800;DHT22;4939;52.00085300;4.17406100;2023-10-09T12:22:05;20.40;99.90
9800;DHT22;4939;52.00085300;4.17406100;2023-10-09T12:24:32;20.20;99.90
9800;DHT22;4939;52.00085300;4.17406100;2023-10-09T12:27:03;20.10;99.90
9800;DHT22;4939;52.00085300;4.17406100;2023-10-09T12:29:35;20.10;99.90
9800;DHT22;4939;52.00085300;4.17406100;2023-10-09T12:32:01;20.00;99.90
9800;DHT22;4939;52.00085300;4.17406100;2023-10-09T12:34:28;20.10;99.90
9800;DHT22;4939;52.00085300;4.17406100;2023-10-09T12:36:56;20.10;99.90
9800;DHT22;4939;52.00085300;4.17406100;2023-10-09T12:39:27;20.30;99.90
9800;DHT22;4939;52.00085300;4.17406100;2023-10-09T12:42:02;20.30;99.90
9800;DHT22;4939;52.00085300;4.17406100;2023-10-09T12:44:34;20.40;99.90
9800;DHT22;4939;52.00085300;4.17406100;2023-10-09T12:47:06;20.40;99.90
9800;DHT22;4939;52.00085300;4.17406100;2023-10-09T12:49:32;20.40;99.90
9800;DHT22;4939;52.00085300;4.17406100;2023-10-09T12:54:25;20.30;99.90
9800;DHT22;4939;52.00085300;4.17406100;2023-10-09T12:56:54;20.20;99.90
9800;DHT22;4939;52.00085300;4.17406100;2023-10-09T12:59:21;20.20;99.90
9800;DHT22;4939;52.00085300;4.17406100;2023-10-09T13:01:47;20.20;99.90
9800;DHT22;4939;52.00085300;4.17406100;2023-10-09T13:04:33;20.20;99.90
9800;DHT22;4939;52.00085300;4.17406100;2023-10-09T13:07:00;20.20;99.90
9800;DHT22;4939;52.00085300;4.17406100;2023-10-09T13:09:29;20.20;99.90
9800;DHT22;4939;52.00085300;4.17406100;2023-10-09T13:12:03;20.20;99.90
9800;DHT22;4939;52.00085300;4.17406100;2023-10-09T13:14:32;20.10;99.90
9800;DHT22;4939;52.00085300;4.17406100;2023-10-09T13:16:59;20.10;99.90
9800;DHT22;4939;52.00085300;4.17406100;2023-10-09T13:19:25;20.20;99.90
9800;DHT22;4939;52.00085300;4.17406100;2023-10-09T13:21:51;20.20;99.90
9800;DHT22;4939;52.00085300;4.17406100;2023-10-09T13:24:17;20.10;99.90
9800;DHT22;4939;52.00085300;4.17406100;2023-10-09T13:26:45;20.20;99.90
9800;DHT22;4939;52.00085300;4.17406100;2023-10-09T13:29:12;20.10;99.90
9800;DHT22;4939;52.00085300;4.17406100;2023-10-09T13:31:39;20.00;99.90
9800;DHT22;4939;52.00085300;4.17406100;2023-10-09T13:34:12;20.10;99.90
9800;DHT22;4939;52.00085300;4.17406100;2023-10-09T13:36:41;20.20;99.90
9800;DHT22;4939;52.00085300;4.17406100;2023-10-09T13:39:21;20.30;99.90
9800;DHT22;4939;52.00085300;4.17406100;2023-10-09T13:41:55;20.10;99.90
9800;DHT22;4939;52.00085300;4.17406100;2023-10-09T13:44:31;20.30;99.90
9800;DHT22;4939;52.00085300;4.17406100;2023-10-09T13:47:02;20.40;99.90
9800;DHT22;4939;52.00085300;4.17406100;2023-10-09T13:49:30;20.50;99.90
9800;DHT22;4939;52.00085300;4.17406100;2023-10-09T13:51:57;20.60;99.90
9800;DHT22;4939;52.00085300;4.17406100;2023-10-09T13:57:02;20.20;99.90
9800;DHT22;4939;52.00085300;4.17406100;2023-10-09T13:59:32;20.10;99.90
9800;DHT22;4939;52.00085300;4.17406100;2023-10-09T14:02:00;20.00;99.90
9800;DHT22;4939;52.00085300;4.17406100;2023-10-09T14:04:28;20.00;99.90
9800;DHT22;4939;52.00085300;4.17406100;2023-10-09T14:09:26;19.90;99.90
9800;DHT22;4939;52.00085300;4.17406100;2023-10-09T14:12:01;19.90;99.90
9800;DHT22;4939;52.00085300;4.17406100;2023-10-09T14:14:42;19.80;99.90
9800;DHT22;4939;52.00085300;4.17406100;2023-10-09T14:17:17;19.80;99.90
9800;DHT22;4939;52.00085300;4.17406100;2023-10-09T14:19:51;19.80;99.90
9800;DHT22;4939;52.00085300;4.17406100;2023-10-09T14:22:19;19.90;99.90
9800;DHT22;4939;52.00085300;4.17406100;2023-10-09T14:24:46;19.80;99.90
9800;DHT22;4939;52.00085300;4.17406100;2023-10-09T14:27:15;19.90;99.90
9800;DHT22;4939;52.00085300;4.17406100;2023-10-09T14:29:48;20.00;99.90
9800;DHT22;4939;52.00085300;4.17406100;2023-10-09T14:32:17;20.10;99.90
9800;DHT22;4939;52.00085300;4.17406100;2023-10-09T14:34:43;20.50;99.90
9800;DHT22;4939;52.00085300;4.17406100;2023-10-09T14:37:18;20.80;99.90
9800;DHT22;4939;52.00085300;4.17406100;2023-10-09T14:39:45;21.10;99.90
9800;DHT22;4939;52.00085300;4.17406100;2023-10-09T14:42:17;21.40;99.90
9800;DHT22;4939;52.00085300;4.17406100;2023-10-09T14:44:44;21.50;99.90
9800;DHT22;4939;52.00085300;4.17406100;2023-10-09T14:47:13;21.50;99.90
9800;DHT22;4939;52.00085300;4.17406100;2023-10-09T14:49:40;21.60;99.90
9800;DHT22;4939;52.00085300;4.17406100;2023-10-09T14:52:13;21.60;99.90
9800;DHT22;4939;52.00085300;4.17406100;2023-10-09T14:54:45;21.30;99.90
9800;DHT22;4939;52.00085300;4.17406100;2023-10-09T14:57:12;21.20;99.90
9800;DHT22;4939;52.00085300;4.17406100;2023-10-09T14:59:39;21.20;99.90
9800;DHT22;4939;52.00085300;4.17406100;2023-10-09T15:02:05;21.20;99.90
9800;DHT22;4939;52.00085300;4.17406100;2023-10-09T15:04:34;21.20;99.90
9800;DHT22;4939;52.00085300;4.17406100;2023-10-09T15:07:05;21.20;99.90
9800;DHT22;4939;52.00085300;4.17406100;2023-10-09T15:09:37;20.80;99.90
9800;DHT22;4939;52.00085300;4.17406100;2023-10-09T15:12:05;20.60;99.90
9800;DHT22;4939;52.00085300;4.17406100;2023-10-09T15:14:32;20.50;99.90
9800;DHT22;4939;52.00085300;4.17406100;2023-10-09T15:19:23;20.30;99.90
9800;DHT22;4939;52.00085300;4.17406100;2023-10-09T15:21:58;20.30;99.90
9800;DHT22;4939;52.00085300;4.17406100;2023-10-09T15:24:27;20.30;99.90
9800;DHT22;4939;52.00085300;4.17406100;2023-10-09T15:26:54;20.10;99.90
9800;DHT22;4939;52.00085300;4.17406100;2023-10-09T15:29:25;19.90;99.90
9800;DHT22;4939;52.00085300;4.17406100;2023-10-09T15:31:56;19.90;99.90
9800;DHT22;4939;52.00085300;4.17406100;2023-10-09T15:34:26;19.80;99.90
9800;DHT22;4939;52.00085300;4.17406100;2023-10-09T15:36:53;19.80;99.90
9800;DHT22;4939;52.00085300;4.17406100;2023-10-09T15:39:18;19.80;99.90
9800;DHT22;4939;52.00085300;4.17406100;2023-10-09T15:41:46;19.70;99.90
9800;DHT22;4939;52.00085300;4.17406100;2023-10-09T15:46:43;19.50;99.90
9800;DHT22;4939;52.00085300;4.17406100;2023-10-09T15:49:14;19.40;99.90
9800;DHT22;4939;52.00085300;4.17406100;2023-10-09T15:51:41;19.40;99.90
9800;DHT22;4939;52.00085300;4.17406100;2023-10-09T15:54:09;19.40;99.90
9800;DHT22;4939;52.00085300;4.17406100;2023-10-09T15:56:37;19.30;99.90
9800;DHT22;4939;52.00085300;4.17406100;2023-10-09T16:04:01;19.30;99.90
9800;DHT22;4939;52.00085300;4.17406100;2023-10-09T16:08:56;19.30;99.90
9800;DHT22;4939;52.00085300;4.17406100;2023-10-09T16:11:23;19.20;99.90
9800;DHT22;4939;52.00085300;4.17406100;2023-10-09T16:13:50;19.20;99.90
9800;DHT22;4939;52.00085300;4.17406100;2023-10-09T16:16:27;19.30;99.90
9800;DHT22;4939;52.00085300;4.17406100;2023-10-09T16:18:54;19.20;99.90
9800;DHT22;4939;52.00085300;4.17406100;2023-10-09T16:21:22;19.30;99.90
9800;DHT22;4939;52.00085300;4.17406100;2023-10-09T16:23:50;19.20;99.90
9800;DHT22;4939;52.00085300;4.17406100;2023-10-09T16:26:16;19.30;99.90
9800;DHT22;4939;52.00085300;4.17406100;2023-10-09T16:28:43;19.20;99.90
9800;DHT22;4939;52.00085300;4.17406100;2023-10-09T16:31:09;19.20;99.90
9800;DHT22;4939;52.00085300;4.17406100;2023-10-09T16:33:40;19.10;99.90
9800;DHT22;4939;52.00085300;4.17406100;2023-10-09T16:36:05;19.10;99.90
9800;DHT22;4939;52.00085300;4.17406100;2023-10-09T16:41:01;19.10;99.90
9800;DHT22;4939;52.00085300;4.17406100;2023-10-09T16:43:33;19.00;99.90
9800;DHT22;4939;52.00085300;4.17406100;2023-10-09T16:46:01;19.00;99.90
9800;DHT22;4939;52.00085300;4.17406100;2023-10-09T16:48:36;18.90;99.90
9800;DHT22;4939;52.00085300;4.17406100;2023-10-09T16:51:09;19.00;99.90
9800;DHT22;4939;52.00085300;4.17406100;2023-10-09T16:53:38;19.00;99.90
9800;DHT22;4939;52.00085300;4.17406100;2023-10-09T16:56:05;19.00;99.90
9800;DHT22;4939;52.00085300;4.17406100;2023-10-09T16:58:40;18.90;99.90
9800;DHT22;4939;52.00085300;4.17406100;2023-10-09T17:01:08;18.90;99.90
9800;DHT22;4939;52.00085300;4.17406100;2023-10-09T17:03:41;18.90;99.90
9800;DHT22;4939;52.00085300;4.17406100;2023-10-09T17:06:13;19.00;99.90
9800;DHT22;4939;52.00085300;4.17406100;2023-10-09T17:08:43;18.90;99.90
9800;DHT22;4939;52.00085300;4.17406100;2023-10-09T17:11:11;18.90;99.90
9800;DHT22;4939;52.00085300;4.17406100;2023-10-09T17:13:42;18.90;99.90
9800;DHT22;4939;52.00085300;4.17406100;2023-10-09T17:16:18;18.90;99.90
9800;DHT22;4939;52.00085300;4.17406100;2023-10-09T17:18:48;18.90;99.90
9800;DHT22;4939;52.00085300;4.17406100;2023-10-09T17:21:14;18.80;99.90
9800;DHT22;4939;52.00085300;4.17406100;2023-10-09T17:23:41;18.80;99.90
9800;DHT22;4939;52.00085300;4.17406100;2023-10-09T17:26:13;18.70;99.90
9800;DHT22;4939;52.00085300;4.17406100;2023-10-09T17:28:40;18.80;99.90
9800;DHT22;4939;52.00085300;4.17406100;2023-10-09T17:31:06;18.80;99.90
9800;DHT22;4939;52.00085300;4.17406100;2023-10-09T17:33:33;18.80;99.90
9800;DHT22;4939;52.00085300;4.17406100;2023-10-09T17:36:06;18.70;99.90
9800;DHT22;4939;52.00085300;4.17406100;2023-10-09T17:38:32;18.70;99.90
9800;DHT22;4939;52.00085300;4.17406100;2023-10-09T17:40:59;18.60;99.90
9800;DHT22;4939;52.00085300;4.17406100;2023-10-09T17:43:26;18.60;99.90
9800;DHT22;4939;52.00085300;4.17406100;2023-10-09T17:45:53;18.60;99.90
9800;DHT22;4939;52.00085300;4.17406100;2023-10-09T17:48:22;18.70;99.90
9800;DHT22;4939;52.00085300;4.17406100;2023-10-09T17:50:48;18.70;99.90
9800;DHT22;4939;52.00085300;4.17406100;2023-10-09T17:53:14;18.60;99.90
9800;DHT22;4939;52.00085300;4.17406100;2023-10-09T17:55:42;18.60;99.90
9800;DHT22;4939;52.00085300;4.17406100;2023-10-09T17:58:09;18.60;99.90
9800;DHT22;4939;52.00085300;4.17406100;2023-10-09T18:00:41;18.60;99.90
9800;DHT22;4939;52.00085300;4.17406100;2023-10-09T18:03:08;18.50;99.90
9800;DHT22;4939;52.00085300;4.17406100;2023-10-09T18:08:00;18.50;99.90
9800;DHT22;4939;52.00085300;4.17406100;2023-10-09T18:10:33;18.50;99.90
9800;DHT22;4939;52.00085300;4.17406100;2023-10-09T18:12:59;18.50;99.90
9800;DHT22;4939;52.00085300;4.17406100;2023-10-09T18:15:26;18.50;99.90
9800;DHT22;4939;52.00085300;4.17406100;2023-10-09T18:20:25;18.50;99.90
9800;DHT22;4939;52.00085300;4.17406100;2023-10-09T18:22:51;18.40;99.90
9800;DHT22;4939;52.00085300;4.17406100;2023-10-09T18:25:17;18.40;99.90
9800;DHT22;4939;52.00085300;4.17406100;2023-10-09T18:27:46;18.50;99.90
9800;DHT22;4939;52.00085300;4.17406100;2023-10-09T18:30:12;18.40;99.90
9800;DHT22;4939;52.00085300;4.17406100;2023-10-09T18:32:44;18.40;99.90
9800;DHT22;4939;52.00085300;4.17406100;2023-10-09T18:35:10;18.40;99.90
9800;DHT22;4939;52.00085300;4.17406100;2023-10-09T18:37:39;18.40;99.90
9800;DHT22;4939;52.00085300;4.17406100;2023-10-09T18:40:09;18.40;99.90